createdAt,value
2023-02-21T05:00:26.347Z,100404.91
2023-02-21T05:03:28.818Z,100404.91
2023-02-21T05:06:31.897Z,100411.56
2023-02-21T05:09:34.330Z,100396.22
2023-02-21T05:12:39.373Z,100405.84
2023-02-21T05:15:42.168Z,100400.47
2023-02-21T05:18:46.412Z,100413.84
2023-02-21T05:21:48.762Z,100409.78
2023-02-21T05:24:50.902Z,100403.63
2023-02-21T05:27:54.013Z,100413.59
2023-02-21T05:30:57.795Z,100409.56
2023-02-21T05:34:01.545Z,100405.22
2023-02-21T05:37:03.769Z,100406.09
2023-02-21T05:40:06.886Z,100403.16
2023-02-21T05:43:09.048Z,100405.88
2023-02-21T05:46:37.659Z,100400.53
2023-02-21T05:49:40.159Z,100386.31
2023-02-21T05:52:42.530Z,100392.19
2023-02-21T05:55:44.641Z,100384.72
2023-02-21T05:58:47.440Z,100391.44
2023-02-21T06:01:51.167Z,100394.03
2023-02-21T06:04:53.512Z,100388.66
2023-02-21T06:07:55.721Z,100393.75
2023-02-21T06:10:58.182Z,100394.78
2023-02-21T06:14:03.488Z,100409.47
2023-02-21T06:17:05.923Z,100394.16
2023-02-21T06:20:11.081Z,100400.38
2023-02-21T06:23:13.496Z,100389.75
2023-02-21T06:26:17.928Z,100388.66
2023-02-21T06:29:20.483Z,100385.38
2023-02-21T06:32:22.607Z,100399.59
2023-02-21T06:35:25.009Z,100396.09
2023-02-21T06:38:27.122Z,100402.50
2023-02-21T06:41:31.695Z,100394.91
2023-02-21T06:44:33.969Z,100413.69
2023-02-21T06:47:36.561Z,100412.84
2023-02-21T06:50:38.663Z,100426.09
2023-02-21T06:53:42.052Z,100426.63
2023-02-21T06:56:47.086Z,100409.63
2023-02-21T06:59:49.702Z,100419.25
2023-02-21T07:02:52.443Z,100417.31
2023-02-21T07:05:54.942Z,100415.97
2023-02-21T07:08:57.541Z,100432.03
2023-02-21T07:11:59.994Z,100431.47
2023-02-21T07:15:02.204Z,100430.16
2023-02-21T07:18:04.826Z,100429.84
2023-02-21T07:21:07.212Z,100429.19
2023-02-21T07:24:09.800Z,100430.56
2023-02-21T07:27:12.114Z,100436.69
2023-02-21T07:30:16.453Z,100440.37
2023-02-21T07:33:18.804Z,100476.06
2023-02-21T07:36:23.465Z,100449.63
2023-02-21T07:39:25.622Z,100459.59
2023-02-21T07:42:28.079Z,100440.69
2023-02-21T07:45:30.334Z,100442.53
2023-02-21T07:48:34.095Z,100450.28
2023-02-21T07:51:36.446Z,100444.13
2023-02-21T07:54:38.924Z,100447.03
2023-02-21T07:57:41.311Z,100450.16
2023-02-21T08:00:43.733Z,100438.03
2023-02-21T08:03:46.322Z,100450.09
2023-02-21T08:06:49.356Z,100442.44
2023-02-21T08:09:51.803Z,100441.34
2023-02-21T08:12:54.122Z,100434.59
2023-02-21T08:15:56.944Z,100434.81
2023-02-21T08:18:59.491Z,100436.72
2023-02-21T08:22:01.846Z,100441.19
2023-02-21T08:25:04.223Z,100446.22
2023-02-21T08:28:06.767Z,100452.47
2023-02-21T08:31:09.031Z,100443.31
2023-02-21T08:34:13.063Z,100451.59
2023-02-21T08:37:20.069Z,100445.78
2023-02-21T08:40:24.503Z,100434.31
2023-02-21T08:43:27.793Z,100437.94
2023-02-21T08:46:30.217Z,100436.84
2023-02-21T08:49:32.305Z,100438.13
2023-02-21T08:52:34.696Z,100442.72
2023-02-21T08:55:36.821Z,100445.84
2023-02-21T08:58:39.344Z,100427.25
2023-02-21T09:01:41.765Z,100429.41
2023-02-21T09:04:47.612Z,100430.72
2023-02-21T09:07:51.556Z,100434.44
2023-02-21T09:10:56.319Z,100421.19
2023-02-21T09:14:02.432Z,100436.25
2023-02-21T09:17:07.490Z,100437.28
2023-02-21T09:20:14.159Z,100425.84
2023-02-21T09:23:18.232Z,100426.63
2023-02-21T09:26:24.063Z,100435.69
2023-02-21T09:29:31.621Z,100426.81
2023-02-21T09:32:36.716Z,100429.12
2023-02-21T09:35:39.276Z,100428.13
2023-02-21T09:38:42.764Z,100434.50
2023-02-21T09:41:46.306Z,100424.25
2023-02-21T09:44:49.881Z,100424.47
2023-02-21T09:47:56.953Z,100421.91
2023-02-21T09:51:05.004Z,100425.69
2023-02-21T09:54:17.118Z,100433.37
2023-02-21T09:57:19.415Z,100428.72
2023-02-21T10:00:35.124Z,100431.47
2023-02-21T10:03:49.584Z,100431.47
2023-02-21T10:07:13.566Z,100419.03
2023-02-21T10:10:50.113Z,100419.94
2023-02-21T10:14:03.202Z,100428.13
2023-02-21T10:17:13.929Z,100434.22
2023-02-21T10:20:48.597Z,100427.03
2023-02-21T10:23:58.260Z,100420.22
2023-02-21T10:27:13.979Z,100413.94
2023-02-21T10:30:38.248Z,100417.66
2023-02-21T10:33:40.823Z,100414.06
2023-02-21T10:36:43.322Z,100402.38
2023-02-21T10:39:59.934Z,100410.34
2023-02-21T10:43:10.204Z,100415.75
2023-02-21T10:46:26.112Z,100434.09
2023-02-21T10:49:39.448Z,100428.13
2023-02-21T10:52:52.742Z,100420.94
2023-02-21T10:56:21.010Z,100411.47
2023-02-21T10:59:30.014Z,100412.47
2023-02-21T11:02:37.418Z,100412.38
2023-02-21T11:05:39.748Z,100412.47
2023-02-21T11:08:44.557Z,100414.94
2023-02-21T11:11:47.602Z,100407.84
2023-02-21T11:14:58.923Z,100407.44
2023-02-21T11:18:11.849Z,100402.44
2023-02-21T11:21:18.564Z,100396.84
2023-02-21T11:24:20.579Z,100412.53
2023-02-21T11:27:23.559Z,100395.44
2023-02-21T11:30:26.097Z,100387.53
2023-02-21T11:33:30.112Z,100373.84
2023-02-21T11:36:32.362Z,100373.13
2023-02-21T11:39:35.274Z,100382.19
2023-02-21T11:42:37.774Z,100385.22
2023-02-21T11:45:47.374Z,100382.56
2023-02-21T11:49:02.391Z,100384.66
2023-02-21T11:52:28.883Z,100378.56
2023-02-21T11:55:32.519Z,100385.03
2023-02-21T11:58:40.736Z,100377.62
2023-02-21T12:02:07.559Z,100376.53
2023-02-21T12:05:26.354Z,100370.84
2023-02-21T12:08:44.507Z,100394.38
2023-02-21T12:12:05.363Z,100378.38
2023-02-21T12:15:07.466Z,100384.69
2023-02-21T12:18:10.194Z,100379.13
2023-02-21T12:21:35.905Z,100381.22
2023-02-21T12:24:41.258Z,100375.94
2023-02-21T12:27:55.939Z,100407.28
2023-02-21T12:31:17.066Z,100385.22
2023-02-21T12:34:37.927Z,100408.78
2023-02-21T12:38:10.019Z,100372.97
2023-02-21T12:41:30.994Z,100378.25
2023-02-21T12:44:48.337Z,100374.25
2023-02-21T12:48:04.165Z,100370.66
2023-02-21T12:51:08.507Z,100402.50
2023-02-21T12:54:47.740Z,100379.25
2023-02-21T12:57:58.376Z,100386.16
2023-02-21T13:01:04.262Z,100385.53
2023-02-21T13:05:05.487Z,100378.06
2023-02-21T13:08:20.687Z,100392.41
2023-02-21T13:11:35.532Z,100378.00
2023-02-21T13:14:49.230Z,100381.62
2023-02-21T13:18:07.440Z,100396.87
2023-02-21T13:21:30.194Z,100389.94
2023-02-21T13:25:14.529Z,100381.06
2023-02-21T13:28:25.652Z,100384.19
2023-02-21T13:31:39.202Z,100377.00
2023-02-21T13:34:45.831Z,100385.25
2023-02-21T13:37:53.154Z,100386.75
2023-02-21T13:41:16.938Z,100379.34
2023-02-21T13:44:31.737Z,100385.53
2023-02-21T13:48:06.247Z,100375.56
2023-02-21T13:51:47.695Z,100382.53
2023-02-21T13:55:08.546Z,100369.97
2023-02-21T13:58:10.832Z,100371.44
2023-02-21T14:01:29.447Z,100377.13
2023-02-21T14:08:08.351Z,100376.47
2023-02-21T14:11:20.110Z,100371.88
2023-02-21T14:14:22.182Z,100373.53
2023-02-21T14:17:29.296Z,100376.16
2023-02-21T14:20:32.150Z,100380.66
2023-02-21T14:23:58.203Z,100370.47
2023-02-21T14:27:12.800Z,100375.87
2023-02-21T14:30:25.662Z,100372.84
2023-02-21T14:33:30.550Z,100365.97
2023-02-21T14:36:33.776Z,100375.38
2023-02-21T14:39:40.812Z,100365.31
2023-02-21T14:43:12.583Z,100363.00
2023-02-21T14:46:46.202Z,100369.47
2023-02-21T14:49:51.375Z,100378.28
2023-02-21T14:53:22.760Z,100379.00
2023-02-21T14:56:45.423Z,100379.63
2023-02-21T14:59:53.410Z,100382.91
2023-02-21T15:03:01.855Z,100378.38
2023-02-21T15:06:10.801Z,100376.56
2023-02-21T15:09:19.359Z,100379.84
2023-02-21T15:12:22.379Z,100375.25
2023-02-21T15:15:27.600Z,100379.66
2023-02-21T15:18:38.960Z,100376.75
2023-02-21T15:21:41.398Z,100379.03
2023-02-21T15:25:04.767Z,100386.72
2023-02-21T15:28:20.085Z,100380.16
2023-02-21T15:31:22.285Z,100380.16
2023-02-21T15:34:41.110Z,100381.72
2023-02-21T15:37:45.344Z,100374.47
2023-02-21T15:40:49.380Z,100385.06
2023-02-21T15:44:12.076Z,100387.78
2023-02-21T15:47:18.722Z,100386.56
2023-02-21T15:50:29.597Z,100392.56
2023-02-21T15:53:32.873Z,100402.97
2023-02-21T15:56:35.324Z,100401.28
2023-02-21T15:59:39.348Z,100390.91
2023-02-21T16:02:41.547Z,100403.97
2023-02-21T16:05:43.995Z,100406.34
2023-02-21T16:08:58.748Z,100407.03
2023-02-21T16:12:35.507Z,100410.84
2023-02-21T16:15:40.704Z,100416.75
2023-02-21T16:18:43.247Z,100418.03
2023-02-21T16:21:45.348Z,100419.53
2023-02-21T16:24:47.827Z,100424.63
2023-02-21T16:27:55.889Z,100434.63
